createdAt,value
2019-02-16T00:00:28.674Z,53.70
2019-02-16T00:02:57.182Z,49.53
2019-02-16T00:05:25.737Z,50.43
2019-02-16T00:07:54.151Z,49.40
2019-02-16T00:10:21.875Z,53.70
2019-02-16T00:12:49.551Z,49.60
2019-02-16T00:15:17.108Z,49.80
2019-02-16T00:17:45.304Z,53.20
2019-02-16T00:20:13.282Z,52.97
2019-02-16T00:22:41.611Z,49.83
2019-02-16T00:25:09.250Z,49.03
2019-02-16T00:27:37.188Z,53.80
2019-02-16T00:30:04.924Z,52.17
2019-02-16T00:32:33.209Z,60.80
2019-02-16T00:35:01.283Z,61.17
2019-02-16T00:37:28.836Z,52.97
2019-02-16T00:39:56.626Z,60.17
2019-02-16T00:42:25.021Z,51.23
2019-02-16T00:44:52.945Z,51.00
2019-02-16T00:47:20.577Z,49.83
2019-02-16T00:49:48.709Z,57.27
2019-02-16T00:52:16.706Z,59.20
2019-02-16T00:54:44.639Z,55.93
2019-02-16T00:57:18.222Z,55.90
2019-02-16T00:59:46.123Z,60.03
2019-02-16T01:02:13.708Z,63.30
2019-02-16T01:04:41.667Z,66.10
2019-02-16T01:07:09.234Z,63.13
2019-02-16T01:09:37.348Z,63.43
2019-02-16T01:12:05.749Z,68.93
2019-02-16T01:14:33.402Z,57.57
2019-02-16T01:17:02.344Z,63.93
2019-02-16T01:19:29.937Z,60.53
2019-02-16T01:21:57.870Z,65.63
2019-02-16T01:24:26.407Z,64.00
2019-02-16T01:26:54.651Z,64.07
2019-02-16T01:29:23.649Z,62.77
2019-02-16T01:31:51.673Z,53.90
2019-02-16T01:34:19.270Z,57.40
2019-02-16T01:36:48.427Z,53.70
2019-02-16T01:39:16.484Z,54.77
2019-02-16T01:41:44.838Z,53.33
2019-02-16T01:44:13.067Z,44.03
2019-02-16T01:46:41.053Z,56.17
2019-02-16T01:49:08.657Z,47.63
2019-02-16T01:51:36.677Z,55.93
2019-02-16T01:54:05.195Z,53.93
2019-02-16T01:56:33.232Z,53.37
2019-02-16T01:59:01.108Z,57.67
2019-02-16T02:01:28.696Z,50.37
2019-02-16T02:03:56.871Z,58.27
2019-02-16T02:06:24.478Z,52.87
2019-02-16T02:08:52.818Z,58.27
2019-02-16T02:11:23.016Z,59.50
2019-02-16T02:13:50.557Z,65.43
2019-02-16T02:16:18.143Z,61.67
2019-02-16T02:18:46.514Z,67.37
2019-02-16T02:21:14.882Z,58.43
2019-02-16T02:23:43.766Z,62.47
2019-02-16T02:26:11.596Z,57.33
2019-02-16T02:28:42.040Z,60.43
2019-02-16T02:33:54.607Z,53.40
2019-02-16T02:36:22.449Z,49.90
2019-02-16T02:38:50.032Z,53.93
2019-02-16T02:41:18.038Z,45.73
2019-02-16T02:43:45.638Z,46.20
2019-02-16T02:46:13.199Z,50.70
2019-02-16T02:48:40.863Z,54.90
2019-02-16T02:51:08.417Z,49.87
2019-02-16T02:53:36.295Z,47.83
2019-02-16T02:56:04.128Z,55.40
2019-02-16T02:58:31.747Z,55.23
2019-02-16T03:00:59.579Z,54.47
2019-02-16T03:03:27.711Z,63.63
2019-02-16T03:05:55.599Z,58.10
2019-02-16T03:08:23.549Z,63.07
2019-02-16T03:10:51.111Z,62.33
2019-02-16T03:13:19.032Z,63.03
2019-02-16T03:15:46.943Z,65.27
2019-02-16T03:18:14.562Z,53.77
2019-02-16T03:20:42.150Z,63.77
2019-02-16T03:23:17.155Z,54.83
2019-02-16T03:26:03.930Z,54.57
2019-02-16T03:28:58.553Z,52.70
2019-02-16T03:32:11.263Z,63.63
2019-02-16T03:35:30.098Z,59.00
2019-02-16T03:38:22.216Z,54.83
2019-02-16T03:40:49.835Z,58.97
2019-02-16T03:43:17.985Z,59.60
2019-02-16T03:45:46.043Z,62.50
2019-02-16T03:48:13.663Z,64.87
2019-02-16T03:50:41.634Z,60.53
2019-02-16T03:53:09.835Z,62.60
2019-02-16T03:55:37.587Z,47.43
2019-02-16T03:58:05.498Z,46.73
2019-02-16T04:00:33.088Z,60.40
2019-02-16T04:03:01.029Z,56.40
2019-02-16T04:05:28.697Z,47.90
2019-02-16T04:07:56.563Z,47.50
2019-02-16T04:10:24.106Z,57.53
2019-02-16T04:12:53.138Z,51.07
2019-02-16T04:15:22.324Z,46.33
2019-02-16T04:17:50.255Z,55.03
2019-02-16T04:20:18.359Z,51.80
2019-02-16T04:22:46.174Z,48.50
2019-02-16T04:25:13.903Z,44.83
2019-02-16T04:27:41.587Z,46.80
2019-02-16T04:30:09.563Z,51.13
2019-02-16T04:32:37.878Z,41.87
2019-02-16T04:35:05.458Z,50.27
2019-02-16T04:37:33.105Z,44.27
2019-02-16T04:40:01.172Z,43.57
2019-02-16T04:42:28.854Z,46.77
2019-02-16T04:44:56.698Z,47.43
2019-02-16T04:47:25.605Z,52.63
2019-02-16T04:49:53.443Z,49.63
2019-02-16T04:52:21.019Z,46.10
2019-02-16T04:54:48.863Z,46.43
2019-02-16T04:57:17.317Z,52.33
2019-02-16T04:59:44.859Z,54.20
2019-02-16T05:02:12.619Z,52.43
2019-02-16T05:04:41.277Z,48.37
2019-02-16T05:07:09.176Z,49.20
2019-02-16T05:09:36.768Z,53.67
2019-02-16T05:12:04.771Z,55.33
2019-02-16T05:14:32.625Z,54.10
2019-02-16T05:17:00.265Z,49.53
2019-02-16T05:19:27.846Z,55.53
2019-02-16T05:21:57.069Z,48.67
2019-02-16T05:24:24.711Z,56.47
2019-02-16T05:26:53.936Z,54.00
2019-02-16T05:29:22.232Z,53.60
2019-02-16T05:31:50.114Z,53.07
2019-02-16T05:34:18.376Z,50.33
2019-02-16T05:36:45.914Z,57.83
2019-02-16T05:39:13.934Z,49.70
2019-02-16T05:41:41.467Z,56.93
2019-02-16T05:44:18.492Z,50.20
2019-02-16T05:46:46.099Z,54.47
2019-02-16T05:49:13.729Z,70.97
2019-02-16T05:51:41.432Z,59.63
2019-02-16T05:54:09.317Z,61.23
2019-02-16T05:56:36.878Z,47.03
2019-02-16T05:59:04.598Z,54.73
2019-02-16T06:01:32.729Z,50.87
2019-02-16T06:04:00.401Z,64.50
2019-02-16T06:06:47.407Z,72.83
2019-02-16T06:09:15.052Z,65.33
2019-02-16T06:11:43.091Z,73.53
2019-02-16T06:14:11.292Z,68.23
2019-02-16T06:16:39.601Z,69.20
2019-02-16T06:19:07.202Z,66.87
2019-02-16T06:21:34.832Z,52.80
2019-02-16T06:24:02.944Z,60.97
2019-02-16T06:26:30.618Z,87.93
2019-02-16T06:28:58.535Z,45.87
2019-02-16T06:31:27.079Z,64.63
2019-02-16T06:33:55.115Z,78.60
2019-02-16T06:36:36.905Z,77.83
2019-02-16T06:39:05.242Z,64.50
2019-02-16T06:41:33.147Z,60.40
2019-02-16T06:44:00.779Z,70.30
2019-02-16T06:46:28.780Z,59.43
2019-02-16T06:48:57.031Z,72.73
2019-02-16T06:51:24.571Z,63.73
2019-02-16T06:53:52.745Z,58.90
2019-02-16T06:56:43.035Z,56.97
2019-02-16T06:59:10.921Z,57.63
2019-02-16T07:01:39.017Z,70.43
2019-02-16T07:04:06.846Z,66.07
2019-02-16T07:06:34.792Z,73.07
2019-02-16T07:09:04.288Z,67.90
2019-02-16T07:11:32.284Z,70.43
2019-02-16T07:13:59.815Z,68.13
2019-02-16T07:16:49.779Z,58.20
2019-02-16T07:19:38.409Z,60.53
2019-02-16T07:22:06.065Z,58.43
2019-02-16T07:24:35.863Z,55.03
2019-02-16T07:27:04.006Z,57.63
2019-02-16T07:29:31.769Z,60.07
2019-02-16T07:31:59.485Z,61.23
2019-02-16T07:34:27.561Z,60.40
2019-02-16T07:36:55.201Z,51.97
2019-02-16T07:39:22.775Z,51.63
2019-02-16T07:41:50.651Z,50.33
2019-02-16T07:44:32.972Z,55.03
2019-02-16T07:47:08.363Z,51.63
2019-02-16T07:49:46.510Z,47.07
2019-02-16T07:52:37.292Z,51.80
2019-02-16T07:55:14.072Z,41.97
2019-02-16T07:57:47.293Z,56.43
2019-02-16T08:00:53.944Z,54.93
2019-02-16T08:03:47.298Z,43.00
2019-02-16T08:06:40.929Z,48.37
2019-02-16T08:09:28.397Z,47.40
2019-02-16T08:12:14.191Z,51.57
2019-02-16T08:15:26.599Z,43.37
2019-02-16T08:18:16.403Z,45.83
2019-02-16T08:21:09.407Z,41.97
2019-02-16T08:23:59.357Z,46.37
2019-02-16T08:26:48.896Z,43.17
2019-02-16T08:29:43.908Z,41.70
2019-02-16T08:32:22.716Z,43.47
2019-02-16T08:35:04.863Z,46.60
2019-02-16T08:37:58.352Z,41.73
2019-02-16T08:40:35.998Z,43.50
2019-02-16T08:43:25.966Z,41.73
2019-02-16T08:46:12.090Z,40.60
2019-02-16T08:48:56.572Z,41.70
2019-02-16T08:51:42.451Z,41.60
2019-02-16T08:54:36.262Z,39.40
2019-02-16T08:57:32.284Z,38.87
2019-02-16T09:00:31.109Z,40.87
2019-02-16T09:03:24.548Z,48.50
2019-02-16T09:06:17.716Z,38.90
2019-02-16T09:09:00.781Z,39.93
2019-02-16T09:11:50.533Z,37.60
2019-02-16T09:14:40.317Z,34.77
2019-02-16T09:17:39.203Z,29.83
2019-02-16T09:20:24.727Z,37.03
2019-02-16T09:23:05.122Z,33.90
2019-02-16T09:25:39.818Z,34.80
2019-02-16T09:28:17.695Z,42.63
2019-02-16T09:30:51.842Z,29.70
2019-02-16T09:33:44.676Z,29.97
2019-02-16T09:36:19.063Z,30.93
2019-02-16T09:39:12.049Z,30.13
2019-02-16T09:41:59.002Z,33.63
2019-02-16T09:44:49.151Z,31.80
2019-02-16T09:47:45.091Z,32.80
2019-02-16T09:50:37.599Z,31.20
2019-02-16T09:53:29.516Z,29.00
2019-02-16T09:56:15.288Z,30.03
2019-02-16T09:59:08.492Z,29.60
2019-02-16T10:02:13.658Z,33.85
2019-02-16T10:05:08.401Z,30.70
2019-02-16T10:08:02.655Z,34.27
2019-02-16T10:10:42.860Z,32.10
2019-02-16T10:13:47.862Z,34.67
2019-02-16T10:16:31.114Z,30.68
2019-02-16T10:19:06.896Z,31.75
2019-02-16T10:21:50.129Z,30.62
2019-02-16T10:24:35.852Z,31.65
2019-02-16T10:27:21.079Z,28.23
2019-02-16T10:30:06.824Z,29.07
2019-02-16T10:32:46.209Z,31.42
2019-02-16T10:35:48.353Z,29.55
2019-02-16T10:38:33.945Z,32.05
2019-02-16T10:41:20.612Z,33.05
2019-02-16T10:44:05.009Z,31.87
2019-02-16T10:46:55.046Z,32.10
2019-02-16T10:49:55.646Z,30.50
2019-02-16T10:52:46.824Z,32.08
2019-02-16T10:55:32.515Z,28.90
2019-02-16T10:58:12.637Z,31.70
2019-02-16T11:00:50.183Z,29.98
2019-02-16T11:03:37.907Z,33.15
2019-02-16T11:06:16.085Z,36.93
2019-02-16T11:08:53.483Z,31.48
2019-02-16T11:11:52.367Z,31.05
2019-02-16T11:14:45.489Z,31.00
2019-02-16T11:17:32.697Z,31.68
2019-02-16T11:20:14.750Z,26.68
2019-02-16T11:23:04.805Z,32.73
2019-02-16T11:25:45.315Z,27.42
2019-02-16T11:28:38.107Z,29.77
2019-02-16T11:31:37.104Z,27.67
2019-02-16T11:34:30.284Z,29.98
2019-02-16T11:37:23.341Z,30.85
2019-02-16T11:40:16.413Z,28.62
2019-02-16T11:43:06.220Z,30.17
2019-02-16T11:45:50.068Z,29.57
2019-02-16T11:48:37.988Z,30.52
2019-02-16T11:51:15.776Z,31.23
2019-02-16T11:54:05.873Z,30.75
2019-02-16T11:56:55.588Z,29.67
2019-02-16T11:59:45.448Z,27.52
2019-02-16T12:02:39.994Z,27.65
2019-02-16T12:05:25.742Z,29.40
2019-02-16T12:08:11.183Z,30.52
2019-02-16T12:11:13.563Z,29.20
2019-02-16T12:13:55.563Z,25.62
2019-02-16T12:16:54.737Z,27.93
2019-02-16T12:19:30.395Z,33.73
2019-02-16T12:22:21.571Z,30.52
2019-02-16T12:25:06.053Z,28.12
2019-02-16T12:28:04.479Z,30.37
2019-02-16T12:30:55.642Z,31.40
2019-02-16T12:33:29.240Z,30.70
2019-02-16T12:36:09.789Z,29.40
2019-02-16T12:38:46.714Z,29.85
2019-02-16T12:41:39.731Z,31.77
2019-02-16T12:44:25.575Z,29.10
2019-02-16T12:47:08.089Z,29.57
2019-02-16T12:49:53.788Z,32.35
2019-02-16T12:52:43.606Z,29.77
2019-02-16T12:55:39.543Z,27.25
2019-02-16T12:58:13.383Z,25.20
2019-02-16T13:00:51.056Z,26.90
2019-02-16T13:03:36.442Z,25.68
2019-02-16T13:06:14.658Z,27.25
2019-02-16T13:08:46.774Z,26.17
2019-02-16T13:11:33.814Z,26.17
2019-02-16T13:14:20.673Z,26.85
2019-02-16T13:17:10.627Z,30.05
2019-02-16T13:19:46.411Z,28.10
2019-02-16T13:22:33.478Z,28.20
2019-02-16T13:25:08.018Z,26.95
2019-02-16T13:27:45.490Z,26.05
2019-02-16T13:30:45.044Z,24.60
2019-02-16T13:33:37.896Z,28.25
2019-02-16T13:36:28.593Z,26.40
2019-02-16T13:39:16.887Z,25.30
2019-02-16T13:42:03.977Z,24.75
2019-02-16T13:44:51.656Z,26.57
2019-02-16T13:47:32.734Z,26.20
2019-02-16T13:50:11.823Z,25.25
2019-02-16T13:53:05.835Z,28.60
2019-02-16T13:55:52.186Z,26.52
2019-02-16T13:58:38.809Z,25.30
2019-02-16T14:01:31.660Z,28.83
2019-02-16T14:04:17.126Z,26.20
2019-02-16T14:06:59.458Z,28.32
2019-02-16T14:09:38.963Z,26.45
2019-02-16T14:12:34.930Z,24.87
2019-02-16T14:15:29.128Z,25.75
2019-02-16T14:17:56.728Z,26.97
2019-02-16T14:20:24.569Z,25.23
2019-02-16T14:22:52.099Z,27.77
2019-02-16T14:25:27.971Z,31.35
2019-02-16T14:27:55.492Z,27.85
2019-02-16T14:30:23.089Z,27.55
2019-02-16T14:32:50.669Z,27.37
2019-02-16T14:35:18.207Z,28.10
2019-02-16T14:37:57.094Z,28.67
2019-02-16T14:40:29.676Z,31.65
2019-02-16T14:42:57.237Z,27.62
2019-02-16T14:45:25.077Z,29.02
2019-02-16T14:47:52.642Z,30.12
2019-02-16T14:50:20.185Z,30.23
2019-02-16T14:52:48.151Z,29.48
2019-02-16T14:55:15.673Z,29.40
2019-02-16T14:57:43.198Z,30.20
2019-02-16T15:00:10.998Z,30.70
2019-02-16T15:02:38.817Z,30.23
2019-02-16T15:05:06.772Z,29.15
2019-02-16T15:07:34.650Z,26.62
2019-02-16T15:10:02.190Z,30.45
2019-02-16T15:12:29.860Z,30.30
2019-02-16T15:14:57.795Z,27.75
2019-02-16T15:17:26.832Z,34.18
2019-02-16T15:19:57.553Z,30.77
2019-02-16T15:22:25.364Z,33.65
2019-02-16T15:24:53.078Z,34.43
2019-02-16T15:27:20.661Z,32.85
2019-02-16T15:29:49.137Z,32.93
2019-02-16T15:32:17.042Z,31.45
2019-02-16T15:34:45.354Z,31.02
2019-02-16T15:37:13.960Z,33.67
2019-02-16T15:39:41.847Z,35.65
2019-02-16T15:42:09.739Z,31.02
2019-02-16T15:44:37.206Z,28.00
2019-02-16T15:47:05.142Z,33.53
2019-02-16T15:49:32.679Z,31.30
2019-02-16T15:52:01.482Z,29.92
2019-02-16T15:54:29.160Z,31.62
2019-02-16T15:56:57.396Z,31.80
2019-02-16T15:59:24.927Z,31.33
2019-02-16T16:01:52.551Z,33.42
2019-02-16T16:04:21.584Z,35.28
2019-02-16T16:06:49.414Z,27.70
2019-02-16T16:09:31.900Z,35.33
2019-02-16T16:12:19.015Z,37.30
2019-02-16T16:14:52.996Z,41.33
2019-02-16T16:17:36.865Z,40.30
2019-02-16T16:20:41.844Z,46.20
2019-02-16T16:23:27.013Z,43.58
2019-02-16T16:26:19.054Z,41.60
2019-02-16T16:29:07.042Z,39.38
2019-02-16T16:31:45.276Z,38.35
2019-02-16T16:34:41.199Z,40.60
2019-02-16T16:37:33.124Z,52.30
2019-02-16T16:40:23.589Z,47.40
2019-02-16T16:43:04.796Z,41.42
2019-02-16T16:45:41.836Z,42.25
2019-02-16T16:48:35.985Z,44.25
2019-02-16T16:51:29.177Z,46.10
2019-02-16T16:54:08.008Z,49.93
2019-02-16T16:56:53.661Z,44.98
2019-02-16T16:59:40.669Z,49.77
2019-02-16T17:02:36.219Z,48.10
2019-02-16T17:05:18.404Z,52.43
2019-02-16T17:08:04.986Z,46.03
2019-02-16T17:10:44.363Z,56.00
2019-02-16T17:13:30.037Z,66.00
2019-02-16T17:16:17.459Z,68.00
2019-02-16T17:19:13.703Z,51.90
2019-02-16T17:21:56.916Z,50.90
2019-02-16T17:24:42.777Z,49.27
2019-02-16T17:27:28.550Z,47.40
2019-02-16T17:30:10.797Z,64.33
2019-02-16T17:32:56.909Z,60.47
2019-02-16T17:35:41.544Z,56.53
2019-02-16T17:38:21.913Z,57.17
2019-02-16T17:41:17.941Z,57.23
2019-02-16T17:44:19.929Z,58.60
2019-02-16T17:47:13.269Z,61.07
2019-02-16T17:49:51.203Z,56.27
2019-02-16T17:52:38.311Z,60.83
2019-02-16T17:55:13.077Z,67.17
2019-02-16T17:58:00.637Z,63.03
2019-02-16T18:00:53.803Z,66.10
2019-02-16T18:03:40.803Z,59.50
2019-02-16T18:06:17.870Z,66.63
2019-02-16T18:09:04.909Z,65.67
2019-02-16T18:11:43.151Z,68.03
2019-02-16T18:14:30.461Z,69.67
2019-02-16T18:17:20.429Z,62.77
2019-02-16T18:20:12.696Z,65.87
2019-02-16T18:22:58.662Z,73.00
2019-02-16T18:25:35.708Z,71.77
2019-02-16T18:28:25.361Z,63.80
2019-02-16T18:31:05.060Z,74.63
2019-02-16T18:34:07.319Z,63.33
2019-02-16T18:36:51.379Z,62.23
2019-02-16T18:39:37.449Z,65.60
2019-02-16T18:42:30.296Z,71.93
2019-02-16T18:45:26.458Z,76.07
2019-02-16T18:48:22.418Z,72.37
2019-02-16T18:51:07.976Z,72.90
2019-02-16T18:53:59.144Z,66.33
2019-02-16T18:57:06.649Z,64.13
2019-02-16T18:59:50.310Z,66.77
2019-02-16T19:02:35.833Z,73.57
2019-02-16T19:05:20.037Z,85.73
2019-02-16T19:08:09.939Z,77.37
2019-02-16T19:10:49.801Z,90.80
2019-02-16T19:14:11.362Z,95.50
2019-02-16T19:16:53.033Z,114.93
2019-02-16T19:19:28.844Z,90.03
2019-02-16T19:22:07.253Z,71.10
2019-02-16T19:24:57.853Z,74.30
2019-02-16T19:27:35.898Z,69.77
2019-02-16T19:30:21.120Z,67.57
2019-02-16T19:33:08.950Z,69.63
2019-02-16T19:35:56.345Z,64.30
2019-02-16T19:38:52.305Z,71.97
2019-02-16T19:41:45.681Z,76.57
2019-02-16T19:44:35.998Z,74.40
2019-02-16T19:47:23.461Z,68.90
2019-02-16T19:50:01.310Z,76.30
2019-02-16T19:52:38.801Z,76.20
2019-02-16T19:55:25.776Z,73.27
2019-02-16T19:57:59.319Z,70.23
2019-02-16T20:00:49.104Z,66.40
2019-02-16T20:03:36.311Z,63.93
2019-02-16T20:06:13.631Z,72.93
2019-02-16T20:08:59.094Z,69.90
2019-02-16T20:11:49.503Z,69.00
2019-02-16T20:14:39.203Z,60.63
2019-02-16T20:17:24.772Z,66.80
2019-02-16T20:20:23.805Z,63.13
2019-02-16T20:23:22.834Z,67.17
2019-02-16T20:26:12.940Z,77.87
2019-02-16T20:29:01.929Z,64.27
2019-02-16T20:31:48.832Z,66.80
2019-02-16T20:34:31.157Z,72.00
2019-02-16T20:37:12.089Z,72.10
2019-02-16T20:39:49.674Z,79.30
2019-02-16T20:42:40.510Z,80.50
2019-02-16T20:45:21.917Z,72.63
2019-02-16T20:48:11.451Z,76.70
2019-02-16T20:50:45.327Z,76.63
2019-02-16T20:53:25.383Z,75.80
2019-02-16T20:56:18.262Z,83.43
2019-02-16T20:58:53.461Z,84.20
2019-02-16T21:01:37.971Z,74.13
2019-02-16T21:04:14.160Z,81.20
2019-02-16T21:06:58.987Z,74.43
2019-02-16T21:09:44.638Z,80.83
2019-02-16T21:12:37.454Z,79.47
2019-02-16T21:15:52.782Z,80.10
2019-02-16T21:18:45.767Z,77.43
2019-02-16T21:21:41.726Z,72.40
2019-02-16T21:24:26.619Z,81.93
2019-02-16T21:27:25.740Z,78.80
2019-02-16T21:30:19.231Z,87.23
2019-02-16T21:33:12.040Z,83.07
2019-02-16T21:36:05.140Z,80.33
2019-02-16T21:39:03.474Z,77.37
2019-02-16T21:41:49.266Z,83.77
2019-02-16T21:44:38.996Z,85.37
2019-02-16T21:47:28.843Z,87.77
2019-02-16T21:50:14.586Z,86.07
2019-02-16T21:53:20.765Z,76.90
2019-02-16T21:56:16.869Z,78.17
2019-02-16T21:59:03.018Z,87.57
2019-02-16T22:01:41.304Z,82.93
2019-02-16T22:04:36.203Z,74.67
2019-02-16T22:07:30.595Z,87.23
2019-02-16T22:10:23.771Z,84.17
2019-02-16T22:13:06.895Z,79.90
2019-02-16T22:15:36.707Z,78.03
2019-02-16T22:18:04.677Z,86.27
2019-02-16T22:20:32.283Z,77.87
2019-02-16T22:23:00.073Z,84.13
2019-02-16T22:25:28.055Z,82.13
2019-02-16T22:27:55.555Z,71.87
2019-02-16T22:30:23.049Z,75.23
2019-02-16T22:32:50.644Z,73.30
2019-02-16T22:35:18.142Z,70.57
2019-02-16T22:37:45.746Z,84.57
2019-02-16T22:40:13.672Z,87.37
2019-02-16T22:42:41.245Z,78.00
2019-02-16T22:45:08.813Z,79.07
2019-02-16T22:47:36.794Z,83.30
2019-02-16T22:50:06.189Z,95.07
2019-02-16T22:52:33.788Z,97.37
2019-02-16T22:55:01.293Z,95.20
2019-02-16T22:57:29.102Z,94.47
2019-02-16T22:59:56.985Z,102.67
2019-02-16T23:02:24.799Z,96.73
2019-02-16T23:04:52.285Z,91.07
2019-02-16T23:07:19.895Z,85.87
2019-02-16T23:09:47.397Z,84.27
2019-02-16T23:12:14.938Z,94.57
2019-02-16T23:14:42.452Z,86.53
2019-02-16T23:17:10.183Z,93.90
2019-02-16T23:19:38.119Z,84.67
2019-02-16T23:22:07.881Z,87.53
2019-02-16T23:24:35.440Z,87.80
2019-02-16T23:27:03.403Z,88.27
2019-02-16T23:29:31.705Z,91.77
2019-02-16T23:31:59.632Z,88.33
2019-02-16T23:34:27.664Z,84.00
2019-02-16T23:36:55.878Z,81.77
2019-02-16T23:39:23.769Z,79.73
2019-02-16T23:41:51.716Z,83.80
2019-02-16T23:44:19.584Z,77.03
2019-02-16T23:46:47.429Z,84.97
2019-02-16T23:49:15.786Z,85.27
2019-02-16T23:51:44.214Z,82.17
2019-02-16T23:54:11.840Z,88.70
2019-02-16T23:56:39.320Z,87.17
2019-02-16T23:59:06.804Z,87.70
